sensor_id;sensor_type;location;lat;lon;timestamp;temperature;humidity
21244;DHT22;10780;50.942;4.028;2023-03-14T00:00:10;10.90;99.90
21244;DHT22;10780;50.942;4.028;2023-03-14T00:02:37;10.90;99.90
21244;DHT22;10780;50.942;4.028;2023-03-14T00:05:04;10.90;99.90
21244;DHT22;10780;50.942;4.028;2023-03-14T00:07:36;10.90;99.90
21244;DHT22;10780;50.942;4.028;2023-03-14T00:10:08;10.90;99.90
21244;DHT22;10780;50.942;4.028;2023-03-14T00:12:34;10.90;99.90
21244;DHT22;10780;50.942;4.028;2023-03-14T00:15:00;10.90;99.90
21244;DHT22;10780;50.942;4.028;2023-03-14T00:17:28;10.90;99.90
21244;DHT22;10780;50.942;4.028;2023-03-14T00:19:54;10.90;99.90
21244;DHT22;10780;50.942;4.028;2023-03-14T00:22:20;10.90;99.90
21244;DHT22;10780;50.942;4.028;2023-03-14T00:24:46;11.00;99.90
21244;DHT22;10780;50.942;4.028;2023-03-14T00:27:12;11.10;99.90
21244;DHT22;10780;50.942;4.028;2023-03-14T00:29:38;11.20;99.90
21244;DHT22;10780;50.942;4.028;2023-03-14T00:32:04;11.20;99.90
21244;DHT22;10780;50.942;4.028;2023-03-14T00:34:30;11.30;99.90
21244;DHT22;10780;50.942;4.028;2023-03-14T00:36:56;11.30;99.90
21244;DHT22;10780;50.942;4.028;2023-03-14T00:39:22;11.10;99.90
21244;DHT22;10780;50.942;4.028;2023-03-14T00:41:47;11.00;99.90
21244;DHT22;10780;50.942;4.028;2023-03-14T00:44:18;10.90;99.90
21244;DHT22;10780;50.942;4.028;2023-03-14T00:46:44;10.90;99.90
21244;DHT22;10780;50.942;4.028;2023-03-14T00:49:09;10.90;99.90
21244;DHT22;10780;50.942;4.028;2023-03-14T00:51:35;10.90;99.90
21244;DHT22;10780;50.942;4.028;2023-03-14T00:54:00;10.80;99.90
21244;DHT22;10780;50.942;4.028;2023-03-14T00:56:26;10.70;99.90
21244;DHT22;10780;50.942;4.028;2023-03-14T00:58:55;10.60;99.90
21244;DHT22;10780;50.942;4.028;2023-03-14T01:01:21;10.60;99.90
21244;DHT22;10780;50.942;4.028;2023-03-14T01:03:49;10.60;99.90
21244;DHT22;10780;50.942;4.028;2023-03-14T01:06:18;10.50;99.90
21244;DHT22;10780;50.942;4.028;2023-03-14T01:08:44;10.50;99.90
21244;DHT22;10780;50.942;4.028;2023-03-14T01:11:19;10.50;99.90
21244;DHT22;10780;50.942;4.028;2023-03-14T01:13:45;10.50;99.90
21244;DHT22;10780;50.942;4.028;2023-03-14T01:16:12;10.50;99.90
21244;DHT22;10780;50.942;4.028;2023-03-14T01:18:39;10.60;99.90
21244;DHT22;10780;50.942;4.028;2023-03-14T01:21:24;10.60;99.90
21244;DHT22;10780;50.942;4.028;2023-03-14T01:23:52;10.80;99.90
21244;DHT22;10780;50.942;4.028;2023-03-14T01:26:21;10.80;99.90
21244;DHT22;10780;50.942;4.028;2023-03-14T01:28:49;10.80;99.90
21244;DHT22;10780;50.942;4.028;2023-03-14T01:31:16;10.70;99.90
21244;DHT22;10780;50.942;4.028;2023-03-14T01:33:42;10.70;99.90
21244;DHT22;10780;50.942;4.028;2023-03-14T01:36:09;10.90;99.90
21244;DHT22;10780;50.942;4.028;2023-03-14T01:38:36;10.90;99.90
21244;DHT22;10780;50.942;4.028;2023-03-14T01:41:02;11.00;99.90
21244;DHT22;10780;50.942;4.028;2023-03-14T01:43:29;11.00;99.90
21244;DHT22;10780;50.942;4.028;2023-03-14T01:51:26;10.90;99.90
21244;DHT22;10780;50.942;4.028;2023-03-14T01:53:57;11.00;99.90
21244;DHT22;10780;50.942;4.028;2023-03-14T01:56:24;11.10;99.90
21244;DHT22;10780;50.942;4.028;2023-03-14T01:58:51;11.00;99.90
21244;DHT22;10780;50.942;4.028;2023-03-14T02:01:19;11.00;99.90
21244;DHT22;10780;50.942;4.028;2023-03-14T02:03:53;11.00;99.90
21244;DHT22;10780;50.942;4.028;2023-03-14T02:06:23;10.90;99.90
21244;DHT22;10780;50.942;4.028;2023-03-14T02:08:50;10.90;99.90
21244;DHT22;10780;50.942;4.028;2023-03-14T02:11:17;10.80;99.90
21244;DHT22;10780;50.942;4.028;2023-03-14T02:13:44;10.70;99.90
21244;DHT22;10780;50.942;4.028;2023-03-14T02:16:09;10.70;99.90
21244;DHT22;10780;50.942;4.028;2023-03-14T02:18:35;10.70;99.90
21244;DHT22;10780;50.942;4.028;2023-03-14T02:26:30;10.90;99.90
21244;DHT22;10780;50.942;4.028;2023-03-14T02:28:57;11.00;99.90
21244;DHT22;10780;50.942;4.028;2023-03-14T02:31:23;11.00;99.90
21244;DHT22;10780;50.942;4.028;2023-03-14T02:33:49;10.90;99.90
21244;DHT22;10780;50.942;4.028;2023-03-14T02:36:17;10.80;99.90
21244;DHT22;10780;50.942;4.028;2023-03-14T02:38:55;10.70;99.90
21244;DHT22;10780;50.942;4.028;2023-03-14T02:41:21;10.70;99.90
21244;DHT22;10780;50.942;4.028;2023-03-14T02:43:46;10.70;99.90
21244;DHT22;10780;50.942;4.028;2023-03-14T02:46:14;10.70;99.90
21244;DHT22;10780;50.942;4.028;2023-03-14T02:48:48;10.70;99.90
21244;DHT22;10780;50.942;4.028;2023-03-14T02:51:15;10.70;99.90
21244;DHT22;10780;50.942;4.028;2023-03-14T02:53:41;10.80;99.90
21244;DHT22;10780;50.942;4.028;2023-03-14T02:56:08;10.80;99.90
21244;DHT22;10780;50.942;4.028;2023-03-14T02:58:34;10.80;99.90
21244;DHT22;10780;50.942;4.028;2023-03-14T03:01:00;10.80;99.90
21244;DHT22;10780;50.942;4.028;2023-03-14T03:03:26;10.80;99.90
21244;DHT22;10780;50.942;4.028;2023-03-14T03:05:53;10.80;99.90
21244;DHT22;10780;50.942;4.028;2023-03-14T03:08:21;10.80;99.90
21244;DHT22;10780;50.942;4.028;2023-03-14T03:10:47;10.90;99.90
21244;DHT22;10780;50.942;4.028;2023-03-14T03:13:13;10.90;99.90
21244;DHT22;10780;50.942;4.028;2023-03-14T03:15:38;11.00;99.90
21244;DHT22;10780;50.942;4.028;2023-03-14T03:18:05;11.10;99.90
21244;DHT22;10780;50.942;4.028;2023-03-14T03:20:30;11.10;99.90
21244;DHT22;10780;50.942;4.028;2023-03-14T03:22:56;11.20;99.90
21244;DHT22;10780;50.942;4.028;2023-03-14T03:25:21;11.10;99.90
21244;DHT22;10780;50.942;4.028;2023-03-14T03:27:47;11.00;99.90
21244;DHT22;10780;50.942;4.028;2023-03-14T03:30:13;11.00;99.90
21244;DHT22;10780;50.942;4.028;2023-03-14T03:32:39;10.90;99.90
21244;DHT22;10780;50.942;4.028;2023-03-14T03:35:05;10.90;99.90
21244;DHT22;10780;50.942;4.028;2023-03-14T03:37:31;10.90;99.90
21244;DHT22;10780;50.942;4.028;2023-03-14T03:39:57;10.80;99.90
21244;DHT22;10780;50.942;4.028;2023-03-14T03:42:23;10.80;99.90
21244;DHT22;10780;50.942;4.028;2023-03-14T03:44:48;10.90;99.90
21244;DHT22;10780;50.942;4.028;2023-03-14T03:47:15;11.10;99.90
21244;DHT22;10780;50.942;4.028;2023-03-14T03:49:41;11.00;99.90
21244;DHT22;10780;50.942;4.028;2023-03-14T03:52:06;11.00;99.90
21244;DHT22;10780;50.942;4.028;2023-03-14T03:54:32;10.90;99.90
21244;DHT22;10780;50.942;4.028;2023-03-14T03:56:57;11.00;99.90
21244;DHT22;10780;50.942;4.028;2023-03-14T03:59:23;11.00;99.90
21244;DHT22;10780;50.942;4.028;2023-03-14T04:01:49;11.00;99.90
21244;DHT22;10780;50.942;4.028;2023-03-14T04:04:14;11.10;99.90
21244;DHT22;10780;50.942;4.028;2023-03-14T04:06:40;11.10;99.90
21244;DHT22;10780;50.942;4.028;2023-03-14T04:09:10;11.10;99.90
21244;DHT22;10780;50.942;4.028;2023-03-14T04:11:36;11.00;99.90
21244;DHT22;10780;50.942;4.028;2023-03-14T04:14:02;10.80;99.90
21244;DHT22;10780;50.942;4.028;2023-03-14T04:16:28;10.80;99.90
21244;DHT22;10780;50.942;4.028;2023-03-14T04:18:54;10.80;99.90
21244;DHT22;10780;50.942;4.028;2023-03-14T04:21:20;10.80;99.90
21244;DHT22;10780;50.942;4.028;2023-03-14T04:23:45;10.90;99.90
21244;DHT22;10780;50.942;4.028;2023-03-14T04:26:11;10.90;99.90
21244;DHT22;10780;50.942;4.028;2023-03-14T04:28:37;10.80;99.90
21244;DHT22;10780;50.942;4.028;2023-03-14T04:31:12;10.90;99.90
21244;DHT22;10780;50.942;4.028;2023-03-14T04:33:38;10.90;99.90
21244;DHT22;10780;50.942;4.028;2023-03-14T04:36:05;10.90;99.90
21244;DHT22;10780;50.942;4.028;2023-03-14T04:38:31;10.90;99.90
21244;DHT22;10780;50.942;4.028;2023-03-14T04:40:57;11.00;99.90
21244;DHT22;10780;50.942;4.028;2023-03-14T04:43:23;11.00;99.90
21244;DHT22;10780;50.942;4.028;2023-03-14T04:45:48;10.90;99.90
21244;DHT22;10780;50.942;4.028;2023-03-14T04:48:14;11.00;99.90
21244;DHT22;10780;50.942;4.028;2023-03-14T04:50:40;11.00;99.90
21244;DHT22;10780;50.942;4.028;2023-03-14T04:53:06;11.00;99.90
21244;DHT22;10780;50.942;4.028;2023-03-14T04:55:32;11.10;99.90
21244;DHT22;10780;50.942;4.028;2023-03-14T04:57:58;11.10;99.90
21244;DHT22;10780;50.942;4.028;2023-03-14T05:00:24;11.00;99.90
21244;DHT22;10780;50.942;4.028;2023-03-14T05:02:50;11.10;99.90
21244;DHT22;10780;50.942;4.028;2023-03-14T05:05:16;11.00;99.90
21244;DHT22;10780;50.942;4.028;2023-03-14T05:07:42;11.10;99.90
21244;DHT22;10780;50.942;4.028;2023-03-14T05:10:08;11.10;99.90
21244;DHT22;10780;50.942;4.028;2023-03-14T05:12:34;11.10;99.90
21244;DHT22;10780;50.942;4.028;2023-03-14T05:15:00;11.10;99.90
21244;DHT22;10780;50.942;4.028;2023-03-14T05:17:25;11.10;99.90
21244;DHT22;10780;50.942;4.028;2023-03-14T05:19:51;11.20;99.90
21244;DHT22;10780;50.942;4.028;2023-03-14T05:22:18;11.30;99.90
21244;DHT22;10780;50.942;4.028;2023-03-14T05:24:43;11.20;99.90
21244;DHT22;10780;50.942;4.028;2023-03-14T05:27:09;11.20;99.90
21244;DHT22;10780;50.942;4.028;2023-03-14T05:29:35;11.10;99.90
21244;DHT22;10780;50.942;4.028;2023-03-14T05:32:00;11.20;99.90
21244;DHT22;10780;50.942;4.028;2023-03-14T05:34:26;11.20;99.90
21244;DHT22;10780;50.942;4.028;2023-03-14T05:36:51;11.20;99.90
21244;DHT22;10780;50.942;4.028;2023-03-14T05:39:18;11.10;99.90
21244;DHT22;10780;50.942;4.028;2023-03-14T05:41:43;11.10;99.90
21244;DHT22;10780;50.942;4.028;2023-03-14T05:44:09;11.10;99.90
21244;DHT22;10780;50.942;4.028;2023-03-14T05:46:35;11.10;99.90
21244;DHT22;10780;50.942;4.028;2023-03-14T05:49:00;11.10;99.90
21244;DHT22;10780;50.942;4.028;2023-03-14T05:51:26;11.00;99.90
21244;DHT22;10780;50.942;4.028;2023-03-14T05:53:51;11.10;99.90
21244;DHT22;10780;50.942;4.028;2023-03-14T05:56:17;11.10;99.90
21244;DHT22;10780;50.942;4.028;2023-03-14T05:58:43;10.90;99.90
21244;DHT22;10780;50.942;4.028;2023-03-14T06:01:09;10.80;99.90
21244;DHT22;10780;50.942;4.028;2023-03-14T06:03:35;10.90;99.90
21244;DHT22;10780;50.942;4.028;2023-03-14T06:06:01;10.80;99.90
21244;DHT22;10780;50.942;4.028;2023-03-14T06:08:26;10.90;99.90
21244;DHT22;10780;50.942;4.028;2023-03-14T06:10:53;10.90;99.90
21244;DHT22;10780;50.942;4.028;2023-03-14T06:13:19;10.90;99.90
21244;DHT22;10780;50.942;4.028;2023-03-14T06:15:44;10.90;99.90
21244;DHT22;10780;50.942;4.028;2023-03-14T06:18:10;10.30;99.90
21244;DHT22;10780;50.942;4.028;2023-03-14T06:20:37;9.50;99.90
21244;DHT22;10780;50.942;4.028;2023-03-14T06:23:06;9.10;99.90
21244;DHT22;10780;50.942;4.028;2023-03-14T06:25:33;8.80;99.90
21244;DHT22;10780;50.942;4.028;2023-03-14T06:27:58;8.70;99.90
21244;DHT22;10780;50.942;4.028;2023-03-14T06:30:24;8.60;99.90
21244;DHT22;10780;50.942;4.028;2023-03-14T06:32:50;8.60;99.90
21244;DHT22;10780;50.942;4.028;2023-03-14T06:35:16;8.50;99.90
21244;DHT22;10780;50.942;4.028;2023-03-14T06:37:41;8.40;99.90
21244;DHT22;10780;50.942;4.028;2023-03-14T06:40:11;8.20;99.90
21244;DHT22;10780;50.942;4.028;2023-03-14T06:42:39;8.10;99.90
21244;DHT22;10780;50.942;4.028;2023-03-14T06:45:05;8.00;99.90
21244;DHT22;10780;50.942;4.028;2023-03-14T06:47:31;7.90;99.90
21244;DHT22;10780;50.942;4.028;2023-03-14T06:49:56;7.80;99.90
21244;DHT22;10780;50.942;4.028;2023-03-14T06:52:22;7.80;99.90
21244;DHT22;10780;50.942;4.028;2023-03-14T06:54:48;7.70;99.90
21244;DHT22;10780;50.942;4.028;2023-03-14T06:57:13;7.70;99.90
21244;DHT22;10780;50.942;4.028;2023-03-14T06:59:39;7.70;99.90
21244;DHT22;10780;50.942;4.028;2023-03-14T07:02:07;7.70;99.90
21244;DHT22;10780;50.942;4.028;2023-03-14T07:04:33;7.70;99.90
21244;DHT22;10780;50.942;4.028;2023-03-14T07:06:58;7.80;99.90
21244;DHT22;10780;50.942;4.028;2023-03-14T07:09:24;7.80;99.90
21244;DHT22;10780;50.942;4.028;2023-03-14T07:11:49;7.80;99.90
21244;DHT22;10780;50.942;4.028;2023-03-14T07:14:15;7.70;99.90
21244;DHT22;10780;50.942;4.028;2023-03-14T07:16:41;7.70;99.90
21244;DHT22;10780;50.942;4.028;2023-03-14T07:19:06;7.70;99.90
21244;DHT22;10780;50.942;4.028;2023-03-14T07:21:32;7.70;99.90
21244;DHT22;10780;50.942;4.028;2023-03-14T07:24:00;7.80;99.90
21244;DHT22;10780;50.942;4.028;2023-03-14T07:26:25;7.70;99.90
21244;DHT22;10780;50.942;4.028;2023-03-14T07:28:51;7.70;99.90
21244;DHT22;10780;50.942;4.028;2023-03-14T07:31:16;7.70;99.90
21244;DHT22;10780;50.942;4.028;2023-03-14T07:33:42;7.80;99.90
21244;DHT22;10780;50.942;4.028;2023-03-14T07:36:08;7.70;99.90
21244;DHT22;10780;50.942;4.028;2023-03-14T07:38:34;7.80;99.90
21244;DHT22;10780;50.942;4.028;2023-03-14T07:41:05;7.80;99.90
21244;DHT22;10780;50.942;4.028;2023-03-14T07:43:33;7.80;99.90
21244;DHT22;10780;50.942;4.028;2023-03-14T07:45:59;7.80;99.90
21244;DHT22;10780;50.942;4.028;2023-03-14T07:48:25;7.90;99.90
21244;DHT22;10780;50.942;4.028;2023-03-14T07:50:53;7.90;99.90
21244;DHT22;10780;50.942;4.028;2023-03-14T07:53:20;8.00;99.90
21244;DHT22;10780;50.942;4.028;2023-03-14T07:55:46;8.00;99.90
21244;DHT22;10780;50.942;4.028;2023-03-14T07:58:12;8.00;99.90
21244;DHT22;10780;50.942;4.028;2023-03-14T08:00:38;7.90;99.90
21244;DHT22;10780;50.942;4.028;2023-03-14T08:03:03;7.90;99.90
21244;DHT22;10780;50.942;4.028;2023-03-14T08:05:29;7.90;99.90
21244;DHT22;10780;50.942;4.028;2023-03-14T08:07:55;7.70;99.90
21244;DHT22;10780;50.942;4.028;2023-03-14T08:10:21;7.50;99.90
21244;DHT22;10780;50.942;4.028;2023-03-14T08:12:49;7.40;99.90
21244;DHT22;10780;50.942;4.028;2023-03-14T08:15:14;7.30;99.90
21244;DHT22;10780;50.942;4.028;2023-03-14T08:17:40;7.30;99.90
21244;DHT22;10780;50.942;4.028;2023-03-14T08:20:06;7.30;99.90
21244;DHT22;10780;50.942;4.028;2023-03-14T08:22:33;7.20;99.90
21244;DHT22;10780;50.942;4.028;2023-03-14T08:24:59;7.20;99.90
21244;DHT22;10780;50.942;4.028;2023-03-14T08:27:25;7.20;99.90
21244;DHT22;10780;50.942;4.028;2023-03-14T08:29:50;7.20;99.90
21244;DHT22;10780;50.942;4.028;2023-03-14T08:32:16;7.20;99.90
21244;DHT22;10780;50.942;4.028;2023-03-14T08:34:41;7.20;99.90
21244;DHT22;10780;50.942;4.028;2023-03-14T08:37:07;7.10;99.90
21244;DHT22;10780;50.942;4.028;2023-03-14T08:39:33;7.20;99.90
21244;DHT22;10780;50.942;4.028;2023-03-14T08:41:59;7.20;99.90
21244;DHT22;10780;50.942;4.028;2023-03-14T08:44:24;7.20;99.90
21244;DHT22;10780;50.942;4.028;2023-03-14T08:46:50;7.30;99.90
21244;DHT22;10780;50.942;4.028;2023-03-14T08:49:16;7.40;99.90
21244;DHT22;10780;50.942;4.028;2023-03-14T08:51:41;7.40;99.90
21244;DHT22;10780;50.942;4.028;2023-03-14T08:54:10;7.40;99.90
21244;DHT22;10780;50.942;4.028;2023-03-14T08:56:36;7.40;99.90
21244;DHT22;10780;50.942;4.028;2023-03-14T08:59:04;7.30;99.90
21244;DHT22;10780;50.942;4.028;2023-03-14T09:01:29;7.40;99.90
21244;DHT22;10780;50.942;4.028;2023-03-14T09:03:58;7.30;99.90
21244;DHT22;10780;50.942;4.028;2023-03-14T09:06:23;7.20;99.90
21244;DHT22;10780;50.942;4.028;2023-03-14T09:08:49;7.20;99.90
21244;DHT22;10780;50.942;4.028;2023-03-14T09:11:15;7.30;99.90
21244;DHT22;10780;50.942;4.028;2023-03-14T09:13:41;7.40;99.90
21244;DHT22;10780;50.942;4.028;2023-03-14T09:16:07;7.60;99.90
21244;DHT22;10780;50.942;4.028;2023-03-14T09:18:33;7.70;99.90
21244;DHT22;10780;50.942;4.028;2023-03-14T09:20:59;7.70;99.90
21244;DHT22;10780;50.942;4.028;2023-03-14T09:23:25;7.70;99.90
21244;DHT22;10780;50.942;4.028;2023-03-14T09:25:55;7.70;99.90
21244;DHT22;10780;50.942;4.028;2023-03-14T09:28:21;7.70;99.90
21244;DHT22;10780;50.942;4.028;2023-03-14T09:30:47;7.80;99.90
21244;DHT22;10780;50.942;4.028;2023-03-14T09:33:12;7.70;99.90
21244;DHT22;10780;50.942;4.028;2023-03-14T09:35:38;7.80;99.90
21244;DHT22;10780;50.942;4.028;2023-03-14T09:38:04;7.80;99.90
21244;DHT22;10780;50.942;4.028;2023-03-14T09:40:34;7.70;99.90
21244;DHT22;10780;50.942;4.028;2023-03-14T09:43:00;7.70;99.90
21244;DHT22;10780;50.942;4.028;2023-03-14T09:45:35;7.80;99.90
21244;DHT22;10780;50.942;4.028;2023-03-14T09:48:03;8.00;99.90
21244;DHT22;10780;50.942;4.028;2023-03-14T09:50:41;8.10;99.90
21244;DHT22;10780;50.942;4.028;2023-03-14T09:53:14;8.00;99.90
21244;DHT22;10780;50.942;4.028;2023-03-14T09:55:42;8.00;99.90
21244;DHT22;10780;50.942;4.028;2023-03-14T09:58:12;8.00;99.90
21244;DHT22;10780;50.942;4.028;2023-03-14T10:00:39;8.00;99.90
21244;DHT22;10780;50.942;4.028;2023-03-14T10:03:34;7.80;99.90
21244;DHT22;10780;50.942;4.028;2023-03-14T10:06:00;7.60;99.90
21244;DHT22;10780;50.942;4.028;2023-03-14T10:08:27;7.30;99.90
21244;DHT22;10780;50.942;4.028;2023-03-14T10:10:54;7.30;99.90
21244;DHT22;10780;50.942;4.028;2023-03-14T10:13:24;7.20;99.90
21244;DHT22;10780;50.942;4.028;2023-03-14T10:16:09;7.20;99.90
21244;DHT22;10780;50.942;4.028;2023-03-14T10:18:35;7.10;99.90
21244;DHT22;10780;50.942;4.028;2023-03-14T10:21:21;7.10;99.90
21244;DHT22;10780;50.942;4.028;2023-03-14T10:23:51;6.90;99.90
21244;DHT22;10780;50.942;4.028;2023-03-14T10:26:29;6.90;99.90
21244;DHT22;10780;50.942;4.028;2023-03-14T10:29:12;6.90;99.90
21244;DHT22;10780;50.942;4.028;2023-03-14T10:31:59;7.00;99.90
21244;DHT22;10780;50.942;4.028;2023-03-14T10:34:32;6.90;99.90
21244;DHT22;10780;50.942;4.028;2023-03-14T10:37:12;6.90;99.90
21244;DHT22;10780;50.942;4.028;2023-03-14T10:39:46;6.80;99.90
21244;DHT22;10780;50.942;4.028;2023-03-14T10:42:21;6.80;99.90
21244;DHT22;10780;50.942;4.028;2023-03-14T10:44:54;6.80;99.90
21244;DHT22;10780;50.942;4.028;2023-03-14T10:47:23;6.80;99.90
21244;DHT22;10780;50.942;4.028;2023-03-14T10:49:50;6.80;99.90
21244;DHT22;10780;50.942;4.028;2023-03-14T10:52:20;6.80;99.90
21244;DHT22;10780;50.942;4.028;2023-03-14T10:55:03;6.80;99.90
21244;DHT22;10780;50.942;4.028;2023-03-14T10:57:29;6.60;99.90
21244;DHT22;10780;50.942;4.028;2023-03-14T10:59:55;6.70;99.90
21244;DHT22;10780;50.942;4.028;2023-03-14T11:05:19;6.70;99.90
21244;DHT22;10780;50.942;4.028;2023-03-14T11:07:46;6.60;99.90
21244;DHT22;10780;50.942;4.028;2023-03-14T11:12:50;6.70;99.90
21244;DHT22;10780;50.942;4.028;2023-03-14T11:15:32;6.80;99.90
21244;DHT22;10780;50.942;4.028;2023-03-14T11:21:32;6.50;99.90
21244;DHT22;10780;50.942;4.028;2023-03-14T11:29:34;6.40;99.90
21244;DHT22;10780;50.942;4.028;2023-03-14T11:32:14;6.30;99.90
21244;DHT22;10780;50.942;4.028;2023-03-14T11:34:53;6.40;99.90
21244;DHT22;10780;50.942;4.028;2023-03-14T11:37:34;6.40;99.90
21244;DHT22;10780;50.942;4.028;2023-03-14T11:40:16;6.60;99.90
21244;DHT22;10780;50.942;4.028;2023-03-14T11:42:45;6.70;99.90
21244;DHT22;10780;50.942;4.028;2023-03-14T11:45:29;6.90;99.90
21244;DHT22;10780;50.942;4.028;2023-03-14T11:48:16;6.90;99.90
21244;DHT22;10780;50.942;4.028;2023-03-14T11:50:44;7.00;99.90
21244;DHT22;10780;50.942;4.028;2023-03-14T11:53:43;7.00;99.90
21244;DHT22;10780;50.942;4.028;2023-03-14T11:56:19;7.00;99.90
21244;DHT22;10780;50.942;4.028;2023-03-14T11:58:57;7.00;99.90
21244;DHT22;10780;50.942;4.028;2023-03-14T12:01:29;6.90;99.90
21244;DHT22;10780;50.942;4.028;2023-03-14T12:04:11;6.90;99.90
21244;DHT22;10780;50.942;4.028;2023-03-14T12:06:48;6.90;99.90
21244;DHT22;10780;50.942;4.028;2023-03-14T12:09:17;7.10;99.90
21244;DHT22;10780;50.942;4.028;2023-03-14T12:11:53;7.10;99.90
21244;DHT22;10780;50.942;4.028;2023-03-14T12:14:29;7.10;99.90
21244;DHT22;10780;50.942;4.028;2023-03-14T12:16:58;7.20;99.90
21244;DHT22;10780;50.942;4.028;2023-03-14T12:19:25;7.20;99.90
21244;DHT22;10780;50.942;4.028;2023-03-14T12:25:23;6.90;99.90
21244;DHT22;10780;50.942;4.028;2023-03-14T12:28:19;7.00;99.90
21244;DHT22;10780;50.942;4.028;2023-03-14T12:30:45;7.00;99.90
21244;DHT22;10780;50.942;4.028;2023-03-14T12:35:47;6.90;99.90
21244;DHT22;10780;50.942;4.028;2023-03-14T12:41:15;7.40;99.90
21244;DHT22;10780;50.942;4.028;2023-03-14T12:43:42;7.40;99.90
21244;DHT22;10780;50.942;4.028;2023-03-14T12:48:34;7.50;99.90
21244;DHT22;10780;50.942;4.028;2023-03-14T12:51:05;7.40;99.90
21244;DHT22;10780;50.942;4.028;2023-03-14T12:54:11;7.40;99.90
21244;DHT22;10780;50.942;4.028;2023-03-14T13:02:20;7.50;99.90
21244;DHT22;10780;50.942;4.028;2023-03-14T13:15:56;8.20;99.90
21244;DHT22;10780;50.942;4.028;2023-03-14T13:18:38;8.10;99.90
21244;DHT22;10780;50.942;4.028;2023-03-14T13:26:40;7.20;99.90
21244;DHT22;10780;50.942;4.028;2023-03-14T13:29:28;6.90;99.90
21244;DHT22;10780;50.942;4.028;2023-03-14T13:31:59;6.30;99.90
21244;DHT22;10780;50.942;4.028;2023-03-14T13:34:33;6.10;99.90
21244;DHT22;10780;50.942;4.028;2023-03-14T13:36:59;6.20;99.90
21244;DHT22;10780;50.942;4.028;2023-03-14T13:39:26;6.40;99.90
21244;DHT22;10780;50.942;4.028;2023-03-14T13:41:57;6.50;99.90
21244;DHT22;10780;50.942;4.028;2023-03-14T13:44:30;6.70;99.90
21244;DHT22;10780;50.942;4.028;2023-03-14T13:47:01;7.00;99.90
21244;DHT22;10780;50.942;4.028;2023-03-14T13:49:29;7.20;99.90
21244;DHT22;10780;50.942;4.028;2023-03-14T13:51:58;7.40;99.90
21244;DHT22;10780;50.942;4.028;2023-03-14T13:54:26;7.50;99.90
21244;DHT22;10780;50.942;4.028;2023-03-14T13:57:04;7.80;99.90
21244;DHT22;10780;50.942;4.028;2023-03-14T13:59:32;7.90;99.90
21244;DHT22;10780;50.942;4.028;2023-03-14T14:04:56;8.10;99.90
21244;DHT22;10780;50.942;4.028;2023-03-14T14:07:23;8.00;99.90
21244;DHT22;10780;50.942;4.028;2023-03-14T14:09:51;7.90;99.90
21244;DHT22;10780;50.942;4.028;2023-03-14T14:12:26;7.90;99.90
21244;DHT22;10780;50.942;4.028;2023-03-14T14:15:07;8.00;99.90
21244;DHT22;10780;50.942;4.028;2023-03-14T14:17:44;8.00;99.90
21244;DHT22;10780;50.942;4.028;2023-03-14T14:20:24;7.80;99.90
21244;DHT22;10780;50.942;4.028;2023-03-14T14:22:52;7.40;99.90
21244;DHT22;10780;50.942;4.028;2023-03-14T14:25:18;7.10;99.90
21244;DHT22;10780;50.942;4.028;2023-03-14T14:27:48;6.70;99.90
21244;DHT22;10780;50.942;4.028;2023-03-14T14:32:43;6.20;99.90
21244;DHT22;10780;50.942;4.028;2023-03-14T14:35:25;6.10;99.90
21244;DHT22;10780;50.942;4.028;2023-03-14T14:37:51;6.10;99.90
21244;DHT22;10780;50.942;4.028;2023-03-14T14:40:24;6.20;99.90
21244;DHT22;10780;50.942;4.028;2023-03-14T14:42:51;6.40;99.90
21244;DHT22;10780;50.942;4.028;2023-03-14T14:45:19;6.60;99.90
21244;DHT22;10780;50.942;4.028;2023-03-14T14:48:08;6.60;99.90
21244;DHT22;10780;50.942;4.028;2023-03-14T14:50:38;6.80;99.90
21244;DHT22;10780;50.942;4.028;2023-03-14T14:53:43;7.10;99.90
21244;DHT22;10780;50.942;4.028;2023-03-14T14:56:20;7.50;99.90
21244;DHT22;10780;50.942;4.028;2023-03-14T14:58:48;8.00;99.90
21244;DHT22;10780;50.942;4.028;2023-03-14T15:01:18;8.10;99.90
21244;DHT22;10780;50.942;4.028;2023-03-14T15:03:46;8.20;99.90
21244;DHT22;10780;50.942;4.028;2023-03-14T15:06:14;8.10;99.90
21244;DHT22;10780;50.942;4.028;2023-03-14T15:08:40;8.20;99.90
21244;DHT22;10780;50.942;4.028;2023-03-14T15:11:21;8.20;99.90
21244;DHT22;10780;50.942;4.028;2023-03-14T15:13:51;8.20;99.90
21244;DHT22;10780;50.942;4.028;2023-03-14T15:16:19;8.40;99.90
21244;DHT22;10780;50.942;4.028;2023-03-14T15:18:50;8.40;99.90
21244;DHT22;10780;50.942;4.028;2023-03-14T15:21:17;8.20;99.90
21244;DHT22;10780;50.942;4.028;2023-03-14T15:23:43;8.20;99.90
21244;DHT22;10780;50.942;4.028;2023-03-14T15:26:15;8.10;99.90
21244;DHT22;10780;50.942;4.028;2023-03-14T15:28:40;8.20;99.90
21244;DHT22;10780;50.942;4.028;2023-03-14T15:31:10;8.20;99.90
21244;DHT22;10780;50.942;4.028;2023-03-14T15:33:36;8.20;99.90
21244;DHT22;10780;50.942;4.028;2023-03-14T15:36:03;8.30;99.90
21244;DHT22;10780;50.942;4.028;2023-03-14T15:38:29;8.20;99.90
21244;DHT22;10780;50.942;4.028;2023-03-14T15:40:55;8.10;99.90
21244;DHT22;10780;50.942;4.028;2023-03-14T15:43:21;8.00;99.90
21244;DHT22;10780;50.942;4.028;2023-03-14T15:45:46;7.90;99.90
21244;DHT22;10780;50.942;4.028;2023-03-14T15:48:16;7.80;99.90
21244;DHT22;10780;50.942;4.028;2023-03-14T15:50:43;7.70;99.90
21244;DHT22;10780;50.942;4.028;2023-03-14T15:53:08;7.50;99.90
21244;DHT22;10780;50.942;4.028;2023-03-14T15:55:34;7.60;99.90
21244;DHT22;10780;50.942;4.028;2023-03-14T15:58:00;7.50;99.90
21244;DHT22;10780;50.942;4.028;2023-03-14T16:00:28;7.60;99.90
21244;DHT22;10780;50.942;4.028;2023-03-14T16:02:53;7.70;99.90
21244;DHT22;10780;50.942;4.028;2023-03-14T16:05:19;7.50;99.90
21244;DHT22;10780;50.942;4.028;2023-03-14T16:07:45;7.40;99.90
21244;DHT22;10780;50.942;4.028;2023-03-14T16:10:12;7.50;99.90
21244;DHT22;10780;50.942;4.028;2023-03-14T16:12:39;7.50;99.90
21244;DHT22;10780;50.942;4.028;2023-03-14T16:15:05;7.50;99.90
21244;DHT22;10780;50.942;4.028;2023-03-14T16:17:31;7.60;99.90
21244;DHT22;10780;50.942;4.028;2023-03-14T16:19:57;7.80;99.90
21244;DHT22;10780;50.942;4.028;2023-03-14T16:22:23;8.00;99.90
21244;DHT22;10780;50.942;4.028;2023-03-14T16:24:48;8.10;99.90
21244;DHT22;10780;50.942;4.028;2023-03-14T16:27:14;8.20;99.90
21244;DHT22;10780;50.942;4.028;2023-03-14T16:29:41;8.20;99.90
21244;DHT22;10780;50.942;4.028;2023-03-14T16:32:07;8.00;99.90
21244;DHT22;10780;50.942;4.028;2023-03-14T16:34:33;8.00;99.90
21244;DHT22;10780;50.942;4.028;2023-03-14T16:36:59;8.00;99.90
21244;DHT22;10780;50.942;4.028;2023-03-14T16:39:24;7.90;99.90
21244;DHT22;10780;50.942;4.028;2023-03-14T16:41:53;7.80;99.90
21244;DHT22;10780;50.942;4.028;2023-03-14T16:44:18;7.90;99.90
21244;DHT22;10780;50.942;4.028;2023-03-14T16:46:44;7.60;99.90
21244;DHT22;10780;50.942;4.028;2023-03-14T16:49:10;7.60;99.90
21244;DHT22;10780;50.942;4.028;2023-03-14T16:51:35;7.60;99.90